KLRD/LRD METAR and TAF weather

Enter ICAO airport designator
Station Type Date Time Source
KLRD METAR 2019/04/26 03:56 UTC NOAA

KLRD 260356Z 07006KT 10SM CLR 25/07 A2998 RMK AO2 SLP160 T02500067


Station Type Date Time Source
KLRD Decoded METAR 2019/04/26 03:56 UTC NOAA

Laredo, Laredo International Airport, TX, United States (KLRD) 27-32-37N 099-27-41W
Apr 25, 2019 - 11:56 PM EDT / 2019.04.26 0356 UTC
Wind: from the ENE (070 degrees) at 7 MPH (6 KT):0
Visibility: 10 mile(s):0
Sky conditions: clear
Temperature: 77.0 F (25.0 C)
Dew Point: 44.1 F (6.7 C)
Relative Humidity: 30%
Pressure (altimeter): 29.98 in. Hg (1015 hPa)
ob: KLRD 260356Z 07006KT 10SM CLR 25/07 A2998 RMK AO2 SLP160 T02500067
cycle: 4

Station Type Date Time Source
KLRD TAF 2019/04/25 18:22 UTC NOAA

TAF KLRD 251720Z 2518/2618 30005KT P6SM SKC
FM260200 10004KT P6SM SKC
FM261400 05005KT P6SM SKC

Example: see airport list